sensor_id;sensor_type;location;lat;lon;timestamp;P1;durP1;ratioP1;P2;durP2;ratioP2
19929;SDS011;10127;47.780;9.606;2022-11-20T00:02:24;5.63;;;4.27;;
19929;SDS011;10127;47.780;9.606;2022-11-20T00:04:49;5.77;;;4.47;;
19929;SDS011;10127;47.780;9.606;2022-11-20T00:07:15;5.70;;;4.33;;
19929;SDS011;10127;47.780;9.606;2022-11-20T00:09:41;6.67;;;4.70;;
19929;SDS011;10127;47.780;9.606;2022-11-20T00:12:06;5.20;;;3.97;;
19929;SDS011;10127;47.780;9.606;2022-11-20T00:14:32;6.10;;;4.10;;
19929;SDS011;10127;47.780;9.606;2022-11-20T00:16:58;7.87;;;4.27;;
19929;SDS011;10127;47.780;9.606;2022-11-20T00:19:23;5.07;;;3.87;;
19929;SDS011;10127;47.780;9.606;2022-11-20T00:21:49;8.27;;;4.17;;
19929;SDS011;10127;47.780;9.606;2022-11-20T00:24:16;4.87;;;4.30;;
19929;SDS011;10127;47.780;9.606;2022-11-20T00:26:42;5.37;;;4.00;;
19929;SDS011;10127;47.780;9.606;2022-11-20T00:29:08;6.50;;;4.63;;
19929;SDS011;10127;47.780;9.606;2022-11-20T00:31:35;5.60;;;3.97;;
19929;SDS011;10127;47.780;9.606;2022-11-20T00:34:01;4.87;;;4.37;;
19929;SDS011;10127;47.780;9.606;2022-11-20T00:36:27;5.83;;;4.60;;
19929;SDS011;10127;47.780;9.606;2022-11-20T00:38:55;7.77;;;4.20;;
19929;SDS011;10127;47.780;9.606;2022-11-20T00:41:22;7.23;;;4.70;;
19929;SDS011;10127;47.780;9.606;2022-11-20T00:43:49;8.97;;;4.83;;
19929;SDS011;10127;47.780;9.606;2022-11-20T00:46:17;7.37;;;4.53;;
19929;SDS011;10127;47.780;9.606;2022-11-20T00:48:44;7.37;;;4.10;;
19929;SDS011;10127;47.780;9.606;2022-11-20T00:51:11;6.73;;;4.30;;
19929;SDS011;10127;47.780;9.606;2022-11-20T00:53:38;6.03;;;3.80;;
19929;SDS011;10127;47.780;9.606;2022-11-20T00:56:05;5.03;;;3.37;;
19929;SDS011;10127;47.780;9.606;2022-11-20T00:58:33;5.87;;;3.87;;
19929;SDS011;10127;47.780;9.606;2022-11-20T01:01:05;3.77;;;3.33;;
19929;SDS011;10127;47.780;9.606;2022-11-20T01:03:36;4.50;;;3.50;;
19929;SDS011;10127;47.780;9.606;2022-11-20T01:06:09;7.73;;;3.33;;
19929;SDS011;10127;47.780;9.606;2022-11-20T01:08:36;5.00;;;3.13;;
19929;SDS011;10127;47.780;9.606;2022-11-20T01:11:02;5.30;;;3.23;;
19929;SDS011;10127;47.780;9.606;2022-11-20T01:13:30;7.93;;;3.40;;
19929;SDS011;10127;47.780;9.606;2022-11-20T01:16:13;3.87;;;3.20;;
19929;SDS011;10127;47.780;9.606;2022-11-20T01:18:41;4.80;;;4.20;;
19929;SDS011;10127;47.780;9.606;2022-11-20T01:21:10;5.73;;;3.53;;
19929;SDS011;10127;47.780;9.606;2022-11-20T01:23:39;4.10;;;3.17;;
19929;SDS011;10127;47.780;9.606;2022-11-20T01:26:06;3.70;;;3.30;;
19929;SDS011;10127;47.780;9.606;2022-11-20T01:28:34;6.03;;;3.37;;
19929;SDS011;10127;47.780;9.606;2022-11-20T01:31:00;3.77;;;3.20;;
19929;SDS011;10127;47.780;9.606;2022-11-20T01:33:27;3.67;;;2.93;;
19929;SDS011;10127;47.780;9.606;2022-11-20T01:35:53;4.97;;;3.37;;
19929;SDS011;10127;47.780;9.606;2022-11-20T01:38:19;5.67;;;3.67;;
19929;SDS011;10127;47.780;9.606;2022-11-20T01:40:54;4.90;;;3.50;;
19929;SDS011;10127;47.780;9.606;2022-11-20T01:43:20;6.43;;;3.70;;
19929;SDS011;10127;47.780;9.606;2022-11-20T01:48:15;5.40;;;3.57;;
19929;SDS011;10127;47.780;9.606;2022-11-20T01:50:43;6.00;;;3.33;;
19929;SDS011;10127;47.780;9.606;2022-11-20T01:53:11;5.10;;;3.70;;
19929;SDS011;10127;47.780;9.606;2022-11-20T01:55:40;4.07;;;3.33;;
19929;SDS011;10127;47.780;9.606;2022-11-20T01:58:10;5.20;;;3.77;;
19929;SDS011;10127;47.780;9.606;2022-11-20T02:00:37;5.93;;;3.13;;
19929;SDS011;10127;47.780;9.606;2022-11-20T02:03:07;5.23;;;3.90;;
19929;SDS011;10127;47.780;9.606;2022-11-20T02:05:42;3.43;;;3.13;;
19929;SDS011;10127;47.780;9.606;2022-11-20T02:08:20;5.30;;;3.63;;
19929;SDS011;10127;47.780;9.606;2022-11-20T02:10:48;4.30;;;3.63;;
19929;SDS011;10127;47.780;9.606;2022-11-20T02:13:13;4.17;;;3.20;;
19929;SDS011;10127;47.780;9.606;2022-11-20T02:15:58;4.20;;;3.60;;
19929;SDS011;10127;47.780;9.606;2022-11-20T02:18:24;4.97;;;3.80;;
19929;SDS011;10127;47.780;9.606;2022-11-20T02:20:56;4.33;;;3.70;;
19929;SDS011;10127;47.780;9.606;2022-11-20T02:26:02;5.63;;;3.90;;
19929;SDS011;10127;47.780;9.606;2022-11-20T02:28:32;5.17;;;4.13;;
19929;SDS011;10127;47.780;9.606;2022-11-20T02:30:58;7.13;;;4.03;;
19929;SDS011;10127;47.780;9.606;2022-11-20T02:33:23;5.43;;;3.73;;
19929;SDS011;10127;47.780;9.606;2022-11-20T02:35:49;8.20;;;3.90;;
19929;SDS011;10127;47.780;9.606;2022-11-20T02:38:15;8.00;;;4.10;;
19929;SDS011;10127;47.780;9.606;2022-11-20T02:40:41;6.00;;;4.10;;
19929;SDS011;10127;47.780;9.606;2022-11-20T02:43:07;4.93;;;3.40;;
19929;SDS011;10127;47.780;9.606;2022-11-20T02:45:33;6.27;;;3.60;;
19929;SDS011;10127;47.780;9.606;2022-11-20T02:47:59;5.03;;;3.90;;
19929;SDS011;10127;47.780;9.606;2022-11-20T02:50:24;5.67;;;3.80;;
19929;SDS011;10127;47.780;9.606;2022-11-20T03:13:27;5.93;;;4.33;;
19929;SDS011;10127;47.780;9.606;2022-11-20T03:15:55;10.20;;;4.50;;
19929;SDS011;10127;47.780;9.606;2022-11-20T03:18:20;5.90;;;3.87;;
19929;SDS011;10127;47.780;9.606;2022-11-20T03:20:46;6.13;;;4.13;;
19929;SDS011;10127;47.780;9.606;2022-11-20T03:23:12;5.77;;;4.00;;
19929;SDS011;10127;47.780;9.606;2022-11-20T03:25:37;6.93;;;4.50;;
19929;SDS011;10127;47.780;9.606;2022-11-20T03:28:03;5.70;;;4.27;;
19929;SDS011;10127;47.780;9.606;2022-11-20T03:30:28;5.57;;;3.57;;
19929;SDS011;10127;47.780;9.606;2022-11-20T03:32:54;5.60;;;4.20;;
19929;SDS011;10127;47.780;9.606;2022-11-20T03:35:20;7.07;;;4.27;;
19929;SDS011;10127;47.780;9.606;2022-11-20T03:37:46;4.80;;;3.73;;
19929;SDS011;10127;47.780;9.606;2022-11-20T03:40:11;5.47;;;4.53;;
19929;SDS011;10127;47.780;9.606;2022-11-20T03:42:37;10.03;;;3.90;;
19929;SDS011;10127;47.780;9.606;2022-11-20T03:45:16;6.83;;;4.50;;
19929;SDS011;10127;47.780;9.606;2022-11-20T03:47:43;6.53;;;4.10;;
19929;SDS011;10127;47.780;9.606;2022-11-20T03:50:10;6.40;;;4.20;;
19929;SDS011;10127;47.780;9.606;2022-11-20T03:52:38;6.20;;;4.40;;
19929;SDS011;10127;47.780;9.606;2022-11-20T03:55:04;4.43;;;4.03;;
19929;SDS011;10127;47.780;9.606;2022-11-20T03:57:31;4.40;;;4.00;;
19929;SDS011;10127;47.780;9.606;2022-11-20T03:59:56;5.00;;;3.70;;
19929;SDS011;10127;47.780;9.606;2022-11-20T04:02:22;4.33;;;3.83;;
19929;SDS011;10127;47.780;9.606;2022-11-20T04:04:47;4.83;;;3.53;;
19929;SDS011;10127;47.780;9.606;2022-11-20T04:07:13;6.50;;;4.10;;
19929;SDS011;10127;47.780;9.606;2022-11-20T04:09:39;4.97;;;3.27;;
19929;SDS011;10127;47.780;9.606;2022-11-20T04:12:04;5.83;;;3.97;;
19929;SDS011;10127;47.780;9.606;2022-11-20T04:14:30;5.53;;;3.70;;
19929;SDS011;10127;47.780;9.606;2022-11-20T04:16:56;4.33;;;3.60;;
19929;SDS011;10127;47.780;9.606;2022-11-20T04:19:21;5.13;;;4.13;;
19929;SDS011;10127;47.780;9.606;2022-11-20T04:21:47;7.43;;;3.90;;
19929;SDS011;10127;47.780;9.606;2022-11-20T04:24:12;7.60;;;4.73;;
19929;SDS011;10127;47.780;9.606;2022-11-20T04:26:38;9.27;;;3.87;;
19929;SDS011;10127;47.780;9.606;2022-11-20T04:29:04;9.37;;;4.20;;
19929;SDS011;10127;47.780;9.606;2022-11-20T04:31:31;4.70;;;3.67;;
19929;SDS011;10127;47.780;9.606;2022-11-20T04:34:02;4.27;;;3.80;;
19929;SDS011;10127;47.780;9.606;2022-11-20T04:36:29;9.07;;;4.13;;
19929;SDS011;10127;47.780;9.606;2022-11-20T04:38:56;5.27;;;4.20;;
19929;SDS011;10127;47.780;9.606;2022-11-20T04:41:24;8.23;;;4.20;;
19929;SDS011;10127;47.780;9.606;2022-11-20T04:43:52;5.50;;;3.10;;
19929;SDS011;10127;47.780;9.606;2022-11-20T04:46:24;5.03;;;3.60;;
19929;SDS011;10127;47.780;9.606;2022-11-20T04:48:51;3.87;;;3.07;;
19929;SDS011;10127;47.780;9.606;2022-11-20T04:51:17;6.43;;;4.10;;
19929;SDS011;10127;47.780;9.606;2022-11-20T04:53:42;4.00;;;3.33;;
19929;SDS011;10127;47.780;9.606;2022-11-20T04:56:09;5.60;;;4.10;;
19929;SDS011;10127;47.780;9.606;2022-11-20T04:58:36;5.80;;;3.57;;
19929;SDS011;10127;47.780;9.606;2022-11-20T05:01:02;4.77;;;3.97;;
19929;SDS011;10127;47.780;9.606;2022-11-20T05:03:29;6.40;;;4.23;;
19929;SDS011;10127;47.780;9.606;2022-11-20T05:05:55;7.37;;;4.73;;
19929;SDS011;10127;47.780;9.606;2022-11-20T05:08:21;7.00;;;3.73;;
19929;SDS011;10127;47.780;9.606;2022-11-20T05:10:47;6.53;;;3.70;;
19929;SDS011;10127;47.780;9.606;2022-11-20T05:13:12;6.47;;;4.50;;
19929;SDS011;10127;47.780;9.606;2022-11-20T05:15:38;8.70;;;4.63;;
19929;SDS011;10127;47.780;9.606;2022-11-20T05:18:03;5.20;;;3.97;;
19929;SDS011;10127;47.780;9.606;2022-11-20T05:20:29;4.83;;;4.30;;
19929;SDS011;10127;47.780;9.606;2022-11-20T05:22:58;5.40;;;4.20;;
19929;SDS011;10127;47.780;9.606;2022-11-20T05:25:23;7.73;;;4.03;;
19929;SDS011;10127;47.780;9.606;2022-11-20T05:27:49;5.67;;;4.20;;
19929;SDS011;10127;47.780;9.606;2022-11-20T05:30:15;7.37;;;4.63;;
19929;SDS011;10127;47.780;9.606;2022-11-20T05:32:40;5.67;;;4.17;;
19929;SDS011;10127;47.780;9.606;2022-11-20T05:35:06;9.80;;;3.60;;
19929;SDS011;10127;47.780;9.606;2022-11-20T05:37:32;6.00;;;3.93;;
19929;SDS011;10127;47.780;9.606;2022-11-20T05:39:57;4.37;;;3.57;;
19929;SDS011;10127;47.780;9.606;2022-11-20T05:42:23;5.83;;;4.07;;
19929;SDS011;10127;47.780;9.606;2022-11-20T05:44:56;8.20;;;4.53;;
19929;SDS011;10127;47.780;9.606;2022-11-20T05:47:26;5.17;;;4.23;;
19929;SDS011;10127;47.780;9.606;2022-11-20T05:49:52;8.33;;;4.63;;
19929;SDS011;10127;47.780;9.606;2022-11-20T05:52:18;6.13;;;4.50;;
19929;SDS011;10127;47.780;9.606;2022-11-20T05:54:44;7.07;;;4.07;;
19929;SDS011;10127;47.780;9.606;2022-11-20T05:57:10;6.67;;;4.30;;
19929;SDS011;10127;47.780;9.606;2022-11-20T05:59:35;5.20;;;4.23;;
19929;SDS011;10127;47.780;9.606;2022-11-20T06:02:01;8.77;;;4.67;;
19929;SDS011;10127;47.780;9.606;2022-11-20T06:04:26;7.03;;;4.13;;
19929;SDS011;10127;47.780;9.606;2022-11-20T06:06:52;8.23;;;4.43;;
19929;SDS011;10127;47.780;9.606;2022-11-20T06:09:18;8.03;;;4.53;;
19929;SDS011;10127;47.780;9.606;2022-11-20T06:11:43;6.47;;;4.50;;
19929;SDS011;10127;47.780;9.606;2022-11-20T06:14:09;5.20;;;4.13;;
19929;SDS011;10127;47.780;9.606;2022-11-20T06:16:34;4.43;;;4.00;;
19929;SDS011;10127;47.780;9.606;2022-11-20T06:19:00;6.63;;;3.73;;
19929;SDS011;10127;47.780;9.606;2022-11-20T06:21:25;5.53;;;4.17;;
19929;SDS011;10127;47.780;9.606;2022-11-20T06:23:52;4.77;;;3.27;;
19929;SDS011;10127;47.780;9.606;2022-11-20T06:26:19;6.83;;;3.93;;
19929;SDS011;10127;47.780;9.606;2022-11-20T06:28:49;8.73;;;3.80;;
19929;SDS011;10127;47.780;9.606;2022-11-20T06:31:17;5.77;;;3.30;;
19929;SDS011;10127;47.780;9.606;2022-11-20T06:33:44;4.07;;;2.90;;
19929;SDS011;10127;47.780;9.606;2022-11-20T06:36:11;7.77;;;3.50;;
19929;SDS011;10127;47.780;9.606;2022-11-20T06:38:38;5.23;;;3.10;;
19929;SDS011;10127;47.780;9.606;2022-11-20T06:41:05;5.67;;;3.53;;
19929;SDS011;10127;47.780;9.606;2022-11-20T06:43:31;7.23;;;3.40;;
19929;SDS011;10127;47.780;9.606;2022-11-20T06:45:57;4.70;;;3.17;;
19929;SDS011;10127;47.780;9.606;2022-11-20T06:48:24;4.27;;;2.77;;
19929;SDS011;10127;47.780;9.606;2022-11-20T06:50:51;3.17;;;2.80;;
19929;SDS011;10127;47.780;9.606;2022-11-20T06:53:16;5.13;;;3.13;;
19929;SDS011;10127;47.780;9.606;2022-11-20T06:55:43;5.30;;;3.40;;
19929;SDS011;10127;47.780;9.606;2022-11-20T06:58:09;4.67;;;3.33;;
19929;SDS011;10127;47.780;9.606;2022-11-20T07:00:35;5.17;;;3.03;;
19929;SDS011;10127;47.780;9.606;2022-11-20T07:03:04;4.57;;;2.90;;
19929;SDS011;10127;47.780;9.606;2022-11-20T07:05:30;8.10;;;3.07;;
19929;SDS011;10127;47.780;9.606;2022-11-20T07:07:56;3.97;;;2.70;;
19929;SDS011;10127;47.780;9.606;2022-11-20T07:10:22;4.87;;;2.70;;
19929;SDS011;10127;47.780;9.606;2022-11-20T07:12:49;5.53;;;2.60;;
19929;SDS011;10127;47.780;9.606;2022-11-20T07:15:18;4.30;;;2.50;;
19929;SDS011;10127;47.780;9.606;2022-11-20T07:17:45;3.80;;;2.30;;
19929;SDS011;10127;47.780;9.606;2022-11-20T07:20:11;4.50;;;2.63;;
19929;SDS011;10127;47.780;9.606;2022-11-20T07:22:37;5.20;;;2.73;;
19929;SDS011;10127;47.780;9.606;2022-11-20T07:25:03;6.80;;;2.70;;
19929;SDS011;10127;47.780;9.606;2022-11-20T07:27:29;2.97;;;2.20;;
19929;SDS011;10127;47.780;9.606;2022-11-20T07:29:55;3.93;;;2.10;;
19929;SDS011;10127;47.780;9.606;2022-11-20T07:32:21;4.07;;;2.60;;
19929;SDS011;10127;47.780;9.606;2022-11-20T07:34:47;4.13;;;2.50;;
19929;SDS011;10127;47.780;9.606;2022-11-20T07:37:12;6.53;;;3.10;;
19929;SDS011;10127;47.780;9.606;2022-11-20T07:39:38;5.27;;;2.40;;
19929;SDS011;10127;47.780;9.606;2022-11-20T07:42:05;3.60;;;2.70;;
19929;SDS011;10127;47.780;9.606;2022-11-20T07:44:32;4.07;;;2.80;;
19929;SDS011;10127;47.780;9.606;2022-11-20T07:46:58;3.57;;;2.23;;
19929;SDS011;10127;47.780;9.606;2022-11-20T07:49:23;4.20;;;2.57;;
19929;SDS011;10127;47.780;9.606;2022-11-20T07:51:52;4.87;;;2.37;;
19929;SDS011;10127;47.780;9.606;2022-11-20T07:54:19;3.87;;;2.00;;
19929;SDS011;10127;47.780;9.606;2022-11-20T07:56:45;3.63;;;2.07;;
19929;SDS011;10127;47.780;9.606;2022-11-20T07:59:12;3.07;;;2.33;;
19929;SDS011;10127;47.780;9.606;2022-11-20T08:01:38;2.70;;;2.03;;
19929;SDS011;10127;47.780;9.606;2022-11-20T08:04:04;3.23;;;2.20;;
19929;SDS011;10127;47.780;9.606;2022-11-20T08:06:30;5.90;;;2.33;;
19929;SDS011;10127;47.780;9.606;2022-11-20T08:08:55;2.57;;;2.17;;
19929;SDS011;10127;47.780;9.606;2022-11-20T08:11:21;4.10;;;2.10;;
19929;SDS011;10127;47.780;9.606;2022-11-20T08:14:06;3.10;;;2.03;;
19929;SDS011;10127;47.780;9.606;2022-11-20T08:16:38;3.57;;;2.30;;
19929;SDS011;10127;47.780;9.606;2022-11-20T08:19:09;3.13;;;2.07;;
19929;SDS011;10127;47.780;9.606;2022-11-20T08:21:34;3.60;;;1.80;;
19929;SDS011;10127;47.780;9.606;2022-11-20T08:24:00;2.17;;;1.60;;
19929;SDS011;10127;47.780;9.606;2022-11-20T08:26:27;3.83;;;2.17;;
19929;SDS011;10127;47.780;9.606;2022-11-20T08:28:53;5.10;;;2.10;;
19929;SDS011;10127;47.780;9.606;2022-11-20T08:31:20;4.67;;;2.20;;
19929;SDS011;10127;47.780;9.606;2022-11-20T08:33:46;3.33;;;2.23;;
19929;SDS011;10127;47.780;9.606;2022-11-20T08:36:12;4.53;;;2.00;;
19929;SDS011;10127;47.780;9.606;2022-11-20T08:38:37;3.40;;;2.00;;
19929;SDS011;10127;47.780;9.606;2022-11-20T08:41:04;6.20;;;2.30;;
19929;SDS011;10127;47.780;9.606;2022-11-20T08:43:55;2.70;;;2.37;;
19929;SDS011;10127;47.780;9.606;2022-11-20T08:46:26;4.53;;;2.43;;
19929;SDS011;10127;47.780;9.606;2022-11-20T08:48:55;4.13;;;2.57;;
19929;SDS011;10127;47.780;9.606;2022-11-20T08:51:21;3.00;;;2.07;;
19929;SDS011;10127;47.780;9.606;2022-11-20T08:53:46;2.70;;;1.83;;
19929;SDS011;10127;47.780;9.606;2022-11-20T08:56:13;2.33;;;1.97;;
19929;SDS011;10127;47.780;9.606;2022-11-20T08:58:39;4.43;;;2.60;;
19929;SDS011;10127;47.780;9.606;2022-11-20T09:01:05;5.13;;;2.03;;
19929;SDS011;10127;47.780;9.606;2022-11-20T09:03:31;1.87;;;1.60;;
19929;SDS011;10127;47.780;9.606;2022-11-20T09:06:00;2.93;;;2.13;;
19929;SDS011;10127;47.780;9.606;2022-11-20T09:08:27;2.17;;;1.50;;
19929;SDS011;10127;47.780;9.606;2022-11-20T09:10:54;2.20;;;1.73;;
19929;SDS011;10127;47.780;9.606;2022-11-20T09:13:21;2.70;;;1.70;;
19929;SDS011;10127;47.780;9.606;2022-11-20T09:15:58;2.67;;;1.97;;
19929;SDS011;10127;47.780;9.606;2022-11-20T09:18:26;3.23;;;1.77;;
19929;SDS011;10127;47.780;9.606;2022-11-20T09:20:57;4.40;;;1.90;;
19929;SDS011;10127;47.780;9.606;2022-11-20T09:23:23;3.70;;;2.40;;
19929;SDS011;10127;47.780;9.606;2022-11-20T09:25:49;2.60;;;2.00;;
19929;SDS011;10127;47.780;9.606;2022-11-20T09:28:15;2.97;;;2.37;;
19929;SDS011;10127;47.780;9.606;2022-11-20T09:30:42;3.47;;;2.37;;
19929;SDS011;10127;47.780;9.606;2022-11-20T09:33:07;2.97;;;1.70;;
19929;SDS011;10127;47.780;9.606;2022-11-20T09:35:33;2.40;;;1.60;;
19929;SDS011;10127;47.780;9.606;2022-11-20T09:38:03;3.53;;;1.93;;
19929;SDS011;10127;47.780;9.606;2022-11-20T09:40:32;3.40;;;1.60;;
19929;SDS011;10127;47.780;9.606;2022-11-20T09:43:20;1.90;;;1.60;;
19929;SDS011;10127;47.780;9.606;2022-11-20T09:46:17;3.07;;;1.90;;
19929;SDS011;10127;47.780;9.606;2022-11-20T09:54:50;2.70;;;1.87;;
19929;SDS011;10127;47.780;9.606;2022-11-20T09:57:18;3.77;;;2.40;;
19929;SDS011;10127;47.780;9.606;2022-11-20T09:59:50;5.00;;;1.80;;
19929;SDS011;10127;47.780;9.606;2022-11-20T10:04:49;4.13;;;1.50;;
19929;SDS011;10127;47.780;9.606;2022-11-20T10:07:42;2.67;;;1.67;;
19929;SDS011;10127;47.780;9.606;2022-11-20T10:10:15;3.93;;;1.90;;
19929;SDS011;10127;47.780;9.606;2022-11-20T10:12:56;2.10;;;1.73;;
19929;SDS011;10127;47.780;9.606;2022-11-20T10:15:42;2.13;;;1.93;;
19929;SDS011;10127;47.780;9.606;2022-11-20T10:21:16;1.83;;;1.37;;
19929;SDS011;10127;47.780;9.606;2022-11-20T10:23:52;3.53;;;1.60;;
19929;SDS011;10127;47.780;9.606;2022-11-20T10:29:16;2.20;;;1.63;;
19929;SDS011;10127;47.780;9.606;2022-11-20T10:31:44;2.37;;;1.67;;
19929;SDS011;10127;47.780;9.606;2022-11-20T10:37:01;2.53;;;1.33;;
19929;SDS011;10127;47.780;9.606;2022-11-20T10:39:39;4.07;;;1.70;;
19929;SDS011;10127;47.780;9.606;2022-11-20T10:45:02;1.80;;;1.50;;
19929;SDS011;10127;47.780;9.606;2022-11-20T10:56:50;4.27;;;2.00;;
19929;SDS011;10127;47.780;9.606;2022-11-20T10:59:28;3.53;;;1.50;;
19929;SDS011;10127;47.780;9.606;2022-11-20T11:02:21;4.30;;;1.77;;
19929;SDS011;10127;47.780;9.606;2022-11-20T11:04:57;2.50;;;1.60;;
19929;SDS011;10127;47.780;9.606;2022-11-20T11:07:36;3.10;;;1.33;;
19929;SDS011;10127;47.780;9.606;2022-11-20T11:10:12;1.63;;;1.40;;
19929;SDS011;10127;47.780;9.606;2022-11-20T11:12:42;2.30;;;1.43;;
19929;SDS011;10127;47.780;9.606;2022-11-20T11:15:12;2.50;;;1.50;;
19929;SDS011;10127;47.780;9.606;2022-11-20T11:17:49;2.53;;;1.35;;
19929;SDS011;10127;47.780;9.606;2022-11-20T11:20:24;1.93;;;1.27;;
19929;SDS011;10127;47.780;9.606;2022-11-20T11:22:55;1.80;;;1.17;;
19929;SDS011;10127;47.780;9.606;2022-11-20T11:27:56;2.30;;;1.20;;
19929;SDS011;10127;47.780;9.606;2022-11-20T11:30:24;2.23;;;1.20;;
19929;SDS011;10127;47.780;9.606;2022-11-20T11:33:02;2.50;;;1.30;;
19929;SDS011;10127;47.780;9.606;2022-11-20T11:35:30;1.10;;;1.00;;
19929;SDS011;10127;47.780;9.606;2022-11-20T11:38:02;2.03;;;1.10;;
19929;SDS011;10127;47.780;9.606;2022-11-20T11:40:32;1.73;;;1.13;;
19929;SDS011;10127;47.780;9.606;2022-11-20T11:43:02;2.30;;;1.20;;
19929;SDS011;10127;47.780;9.606;2022-11-20T11:45:54;1.77;;;1.40;;
19929;SDS011;10127;47.780;9.606;2022-11-20T11:48:20;1.33;;;1.20;;
19929;SDS011;10127;47.780;9.606;2022-11-20T11:50:50;2.27;;;1.27;;
19929;SDS011;10127;47.780;9.606;2022-11-20T11:53:17;3.47;;;1.50;;
19929;SDS011;10127;47.780;9.606;2022-11-20T11:58:33;1.97;;;1.40;;
19929;SDS011;10127;47.780;9.606;2022-11-20T12:01:20;2.43;;;1.30;;
19929;SDS011;10127;47.780;9.606;2022-11-20T12:04:02;3.03;;;0.90;;
19929;SDS011;10127;47.780;9.606;2022-11-20T12:06:50;2.80;;;1.53;;
19929;SDS011;10127;47.780;9.606;2022-11-20T12:09:23;3.63;;;1.30;;
19929;SDS011;10127;47.780;9.606;2022-11-20T12:12:05;1.37;;;1.10;;
19929;SDS011;10127;47.780;9.606;2022-11-20T12:14:39;3.63;;;1.20;;
19929;SDS011;10127;47.780;9.606;2022-11-20T12:17:11;1.30;;;1.20;;
19929;SDS011;10127;47.780;9.606;2022-11-20T12:19:38;2.47;;;1.13;;
19929;SDS011;10127;47.780;9.606;2022-11-20T12:30:28;4.17;;;1.20;;
19929;SDS011;10127;47.780;9.606;2022-11-20T12:41:22;2.97;;;1.30;;
19929;SDS011;10127;47.780;9.606;2022-11-20T12:53:23;3.57;;;1.20;;
19929;SDS011;10127;47.780;9.606;2022-11-20T13:07:12;1.47;;;1.10;;
19929;SDS011;10127;47.780;9.606;2022-11-20T13:09:46;3.97;;;1.20;;
19929;SDS011;10127;47.780;9.606;2022-11-20T13:15:09;3.80;;;1.17;;
19929;SDS011;10127;47.780;9.606;2022-11-20T13:20:43;1.23;;;1.13;;
19929;SDS011;10127;47.780;9.606;2022-11-20T13:23:10;3.77;;;1.00;;
19929;SDS011;10127;47.780;9.606;2022-11-20T13:25:37;5.80;;;1.30;;
19929;SDS011;10127;47.780;9.606;2022-11-20T13:30:36;2.33;;;1.03;;
19929;SDS011;10127;47.780;9.606;2022-11-20T13:33:30;3.23;;;1.20;;
19929;SDS011;10127;47.780;9.606;2022-11-20T13:38:27;2.43;;;1.33;;
19929;SDS011;10127;47.780;9.606;2022-11-20T13:40:55;2.07;;;0.90;;
19929;SDS011;10127;47.780;9.606;2022-11-20T13:43:46;4.03;;;1.20;;
19929;SDS011;10127;47.780;9.606;2022-11-20T13:46:12;1.83;;;1.30;;
19929;SDS011;10127;47.780;9.606;2022-11-20T13:48:41;2.00;;;1.20;;
19929;SDS011;10127;47.780;9.606;2022-11-20T13:51:27;7.63;;;1.50;;
19929;SDS011;10127;47.780;9.606;2022-11-20T13:59:57;2.17;;;1.20;;
19929;SDS011;10127;47.780;9.606;2022-11-20T14:02:27;2.73;;;1.10;;
19929;SDS011;10127;47.780;9.606;2022-11-20T14:04:56;3.10;;;1.03;;
19929;SDS011;10127;47.780;9.606;2022-11-20T14:07:25;1.40;;;1.30;;
19929;SDS011;10127;47.780;9.606;2022-11-20T14:09:57;2.70;;;1.07;;
19929;SDS011;10127;47.780;9.606;2022-11-20T14:12:27;5.47;;;1.20;;
19929;SDS011;10127;47.780;9.606;2022-11-20T14:14:59;4.13;;;1.43;;
19929;SDS011;10127;47.780;9.606;2022-11-20T14:19:53;1.87;;;1.20;;
19929;SDS011;10127;47.780;9.606;2022-11-20T14:22:23;2.07;;;1.37;;
19929;SDS011;10127;47.780;9.606;2022-11-20T14:27:42;2.20;;;1.37;;
19929;SDS011;10127;47.780;9.606;2022-11-20T14:30:14;1.37;;;1.10;;
19929;SDS011;10127;47.780;9.606;2022-11-20T14:32:42;4.20;;;1.60;;
19929;SDS011;10127;47.780;9.606;2022-11-20T14:35:09;3.13;;;1.80;;
19929;SDS011;10127;47.780;9.606;2022-11-20T14:37:43;1.73;;;1.33;;
19929;SDS011;10127;47.780;9.606;2022-11-20T14:42:49;3.17;;;1.30;;
19929;SDS011;10127;47.780;9.606;2022-11-20T14:45:15;4.33;;;1.30;;
19929;SDS011;10127;47.780;9.606;2022-11-20T14:47:41;1.63;;;1.00;;
19929;SDS011;10127;47.780;9.606;2022-11-20T14:50:12;4.37;;;1.40;;
19929;SDS011;10127;47.780;9.606;2022-11-20T14:52:59;3.63;;;1.23;;
19929;SDS011;10127;47.780;9.606;2022-11-20T14:55:26;2.63;;;1.10;;
19929;SDS011;10127;47.780;9.606;2022-11-20T14:58:04;5.23;;;1.20;;
19929;SDS011;10127;47.780;9.606;2022-11-20T15:00:32;2.20;;;1.17;;
19929;SDS011;10127;47.780;9.606;2022-11-20T15:02:59;1.20;;;1.10;;
19929;SDS011;10127;47.780;9.606;2022-11-20T15:05:44;2.67;;;1.40;;
19929;SDS011;10127;47.780;9.606;2022-11-20T15:08:14;1.20;;;1.03;;
19929;SDS011;10127;47.780;9.606;2022-11-20T15:10:47;2.07;;;1.20;;
19929;SDS011;10127;47.780;9.606;2022-11-20T15:13:32;2.20;;;1.30;;
19929;SDS011;10127;47.780;9.606;2022-11-20T15:16:02;2.10;;;1.37;;
19929;SDS011;10127;47.780;9.606;2022-11-20T15:18:37;2.33;;;1.00;;
19929;SDS011;10127;47.780;9.606;2022-11-20T15:21:10;3.90;;;1.53;;
19929;SDS011;10127;47.780;9.606;2022-11-20T15:23:37;2.87;;;1.10;;
19929;SDS011;10127;47.780;9.606;2022-11-20T15:26:09;2.27;;;1.03;;
19929;SDS011;10127;47.780;9.606;2022-11-20T15:28:41;1.70;;;1.10;;
19929;SDS011;10127;47.780;9.606;2022-11-20T15:31:11;1.53;;;1.30;;
19929;SDS011;10127;47.780;9.606;2022-11-20T15:33:38;3.20;;;1.60;;
19929;SDS011;10127;47.780;9.606;2022-11-20T15:36:03;5.83;;;2.30;;
19929;SDS011;10127;47.780;9.606;2022-11-20T15:38:29;3.33;;;1.60;;
19929;SDS011;10127;47.780;9.606;2022-11-20T15:40:55;2.10;;;1.53;;
19929;SDS011;10127;47.780;9.606;2022-11-20T15:43:21;4.67;;;2.03;;
19929;SDS011;10127;47.780;9.606;2022-11-20T15:46:00;4.97;;;2.50;;
19929;SDS011;10127;47.780;9.606;2022-11-20T15:48:41;4.83;;;2.63;;
19929;SDS011;10127;47.780;9.606;2022-11-20T15:53:34;5.77;;;2.60;;
19929;SDS011;10127;47.780;9.606;2022-11-20T15:56:00;8.20;;;4.07;;
19929;SDS011;10127;47.780;9.606;2022-11-20T15:58:26;10.23;;;3.67;;
19929;SDS011;10127;47.780;9.606;2022-11-20T16:00:52;8.90;;;3.97;;
19929;SDS011;10127;47.780;9.606;2022-11-20T16:03:18;7.80;;;4.00;;
19929;SDS011;10127;47.780;9.606;2022-11-20T16:05:44;9.87;;;3.50;;
19929;SDS011;10127;47.780;9.606;2022-11-20T16:08:10;10.50;;;3.60;;
19929;SDS011;10127;47.780;9.606;2022-11-20T16:10:36;8.97;;;4.97;;
19929;SDS011;10127;47.780;9.606;2022-11-20T16:13:02;11.40;;;5.77;;
19929;SDS011;10127;47.780;9.606;2022-11-20T16:15:56;12.73;;;7.57;;
19929;SDS011;10127;47.780;9.606;2022-11-20T16:18:23;16.23;;;9.43;;
19929;SDS011;10127;47.780;9.606;2022-11-20T16:20:50;15.87;;;9.70;;
19929;SDS011;10127;47.780;9.606;2022-11-20T16:23:17;20.27;;;11.97;;
19929;SDS011;10127;47.780;9.606;2022-11-20T16:25:43;18.37;;;10.77;;
19929;SDS011;10127;47.780;9.606;2022-11-20T16:28:09;16.90;;;10.07;;
19929;SDS011;10127;47.780;9.606;2022-11-20T16:30:35;18.27;;;11.13;;
19929;SDS011;10127;47.780;9.606;2022-11-20T16:33:02;17.27;;;10.23;;
19929;SDS011;10127;47.780;9.606;2022-11-20T16:35:29;13.20;;;8.27;;
19929;SDS011;10127;47.780;9.606;2022-11-20T16:37:55;17.83;;;9.67;;
19929;SDS011;10127;47.780;9.606;2022-11-20T16:40:22;12.47;;;7.37;;
19929;SDS011;10127;47.780;9.606;2022-11-20T16:42:48;17.30;;;7.23;;
19929;SDS011;10127;47.780;9.606;2022-11-20T16:45:14;11.77;;;6.80;;
19929;SDS011;10127;47.780;9.606;2022-11-20T16:47:40;11.10;;;6.30;;
19929;SDS011;10127;47.780;9.606;2022-11-20T16:50:06;9.93;;;6.10;;
19929;SDS011;10127;47.780;9.606;2022-11-20T16:52:32;9.73;;;4.93;;
19929;SDS011;10127;47.780;9.606;2022-11-20T16:54:58;5.53;;;3.70;;
19929;SDS011;10127;47.780;9.606;2022-11-20T16:57:26;6.50;;;4.17;;
19929;SDS011;10127;47.780;9.606;2022-11-20T16:59:53;5.90;;;3.40;;
19929;SDS011;10127;47.780;9.606;2022-11-20T17:02:19;11.37;;;4.17;;